sensor_id;sensor_type;location;lat;lon;timestamp;temperature;humidity
28087;DHT22;15392;48.912;8.380;2023-09-07T00:00:43;23.50;44.00
28087;DHT22;15392;48.912;8.380;2023-09-07T00:03:09;23.50;43.90
28087;DHT22;15392;48.912;8.380;2023-09-07T00:05:34;23.60;43.80
28087;DHT22;15392;48.912;8.380;2023-09-07T00:08:00;23.60;43.70
28087;DHT22;15392;48.912;8.380;2023-09-07T00:10:26;23.60;43.50
28087;DHT22;15392;48.912;8.380;2023-09-07T00:12:52;23.60;43.40
28087;DHT22;15392;48.912;8.380;2023-09-07T00:15:18;23.60;43.40
28087;DHT22;15392;48.912;8.380;2023-09-07T00:17:47;23.60;43.40
28087;DHT22;15392;48.912;8.380;2023-09-07T00:20:12;23.70;43.60
28087;DHT22;15392;48.912;8.380;2023-09-07T00:22:41;23.70;43.60
28087;DHT22;15392;48.912;8.380;2023-09-07T00:25:07;23.80;44.30
28087;DHT22;15392;48.912;8.380;2023-09-07T00:27:34;23.70;43.40
28087;DHT22;15392;48.912;8.380;2023-09-07T00:30:00;23.80;43.30
28087;DHT22;15392;48.912;8.380;2023-09-07T00:32:26;23.80;43.30
28087;DHT22;15392;48.912;8.380;2023-09-07T00:34:51;23.80;43.10
28087;DHT22;15392;48.912;8.380;2023-09-07T00:37:17;23.80;43.20
28087;DHT22;15392;48.912;8.380;2023-09-07T00:39:43;23.80;43.10
28087;DHT22;15392;48.912;8.380;2023-09-07T00:42:08;23.90;43.10
28087;DHT22;15392;48.912;8.380;2023-09-07T00:44:34;23.90;43.10
28087;DHT22;15392;48.912;8.380;2023-09-07T00:47:00;23.90;43.00
28087;DHT22;15392;48.912;8.380;2023-09-07T00:49:25;23.90;43.00
28087;DHT22;15392;48.912;8.380;2023-09-07T00:51:52;23.90;42.90
28087;DHT22;15392;48.912;8.380;2023-09-07T00:54:18;24.00;43.00
28087;DHT22;15392;48.912;8.380;2023-09-07T00:56:44;24.00;42.90
28087;DHT22;15392;48.912;8.380;2023-09-07T00:59:11;24.00;42.90
28087;DHT22;15392;48.912;8.380;2023-09-07T01:01:38;24.00;42.90
28087;DHT22;15392;48.912;8.380;2023-09-07T01:04:04;24.00;42.90
28087;DHT22;15392;48.912;8.380;2023-09-07T01:06:42;24.10;42.90
28087;DHT22;15392;48.912;8.380;2023-09-07T01:09:14;24.00;42.80
28087;DHT22;15392;48.912;8.380;2023-09-07T01:11:42;24.10;42.80
28087;DHT22;15392;48.912;8.380;2023-09-07T01:14:08;24.10;42.80
28087;DHT22;15392;48.912;8.380;2023-09-07T01:16:34;24.10;42.80
28087;DHT22;15392;48.912;8.380;2023-09-07T01:19:01;24.10;42.70
28087;DHT22;15392;48.912;8.380;2023-09-07T01:21:34;24.10;42.70
28087;DHT22;15392;48.912;8.380;2023-09-07T01:24:01;24.10;42.70
28087;DHT22;15392;48.912;8.380;2023-09-07T01:26:35;24.10;42.70
28087;DHT22;15392;48.912;8.380;2023-09-07T01:29:08;24.10;42.70
28087;DHT22;15392;48.912;8.380;2023-09-07T01:31:35;24.10;42.70
28087;DHT22;15392;48.912;8.380;2023-09-07T01:34:02;24.00;42.60
28087;DHT22;15392;48.912;8.380;2023-09-07T01:36:28;24.00;42.60
28087;DHT22;15392;48.912;8.380;2023-09-07T01:38:55;24.00;42.60
28087;DHT22;15392;48.912;8.380;2023-09-07T01:41:21;24.00;42.70
28087;DHT22;15392;48.912;8.380;2023-09-07T01:43:47;24.00;42.70
28087;DHT22;15392;48.912;8.380;2023-09-07T01:46:13;24.00;42.70
28087;DHT22;15392;48.912;8.380;2023-09-07T01:48:39;24.00;42.70
28087;DHT22;15392;48.912;8.380;2023-09-07T01:51:04;24.00;42.70
28087;DHT22;15392;48.912;8.380;2023-09-07T01:53:30;24.00;42.70
28087;DHT22;15392;48.912;8.380;2023-09-07T01:55:56;24.00;42.70
28087;DHT22;15392;48.912;8.380;2023-09-07T01:58:22;24.00;43.30
28087;DHT22;15392;48.912;8.380;2023-09-07T02:00:49;24.00;42.80
28087;DHT22;15392;48.912;8.380;2023-09-07T02:03:15;23.90;42.70
28087;DHT22;15392;48.912;8.380;2023-09-07T02:05:41;23.90;42.70
28087;DHT22;15392;48.912;8.380;2023-09-07T02:08:07;23.90;42.80
28087;DHT22;15392;48.912;8.380;2023-09-07T02:10:33;23.90;42.80
28087;DHT22;15392;48.912;8.380;2023-09-07T02:12:59;23.90;42.80
28087;DHT22;15392;48.912;8.380;2023-09-07T02:15:25;23.90;43.40
28087;DHT22;15392;48.912;8.380;2023-09-07T02:17:50;23.90;42.80
28087;DHT22;15392;48.912;8.380;2023-09-07T02:20:18;23.90;42.80
28087;DHT22;15392;48.912;8.380;2023-09-07T02:22:45;23.90;42.90
28087;DHT22;15392;48.912;8.380;2023-09-07T02:25:11;23.90;43.20
28087;DHT22;15392;48.912;8.380;2023-09-07T02:27:37;23.80;42.90
28087;DHT22;15392;48.912;8.380;2023-09-07T02:30:04;23.90;43.00
28087;DHT22;15392;48.912;8.380;2023-09-07T02:32:31;23.80;42.90
28087;DHT22;15392;48.912;8.380;2023-09-07T02:34:57;23.80;42.90
28087;DHT22;15392;48.912;8.380;2023-09-07T02:37:23;23.80;42.80
28087;DHT22;15392;48.912;8.380;2023-09-07T02:39:49;23.80;42.90
28087;DHT22;15392;48.912;8.380;2023-09-07T02:42:14;23.80;42.80
28087;DHT22;15392;48.912;8.380;2023-09-07T02:44:40;23.80;42.80
28087;DHT22;15392;48.912;8.380;2023-09-07T02:47:06;23.80;42.80
28087;DHT22;15392;48.912;8.380;2023-09-07T02:49:31;23.80;42.90
28087;DHT22;15392;48.912;8.380;2023-09-07T02:51:57;23.80;42.90
28087;DHT22;15392;48.912;8.380;2023-09-07T02:54:23;23.80;42.90
28087;DHT22;15392;48.912;8.380;2023-09-07T02:56:49;23.80;42.90
28087;DHT22;15392;48.912;8.380;2023-09-07T02:59:15;23.80;42.90
28087;DHT22;15392;48.912;8.380;2023-09-07T03:01:40;23.80;42.90
28087;DHT22;15392;48.912;8.380;2023-09-07T03:04:06;23.70;43.00
28087;DHT22;15392;48.912;8.380;2023-09-07T03:06:33;23.80;42.90
28087;DHT22;15392;48.912;8.380;2023-09-07T03:08:58;23.70;42.90
28087;DHT22;15392;48.912;8.380;2023-09-07T03:11:25;23.70;42.90
28087;DHT22;15392;48.912;8.380;2023-09-07T03:13:50;23.70;42.90
28087;DHT22;15392;48.912;8.380;2023-09-07T03:16:16;23.70;42.90
28087;DHT22;15392;48.912;8.380;2023-09-07T03:18:42;23.70;42.90
28087;DHT22;15392;48.912;8.380;2023-09-07T03:21:07;23.70;43.00
28087;DHT22;15392;48.912;8.380;2023-09-07T03:23:34;23.70;43.00
28087;DHT22;15392;48.912;8.380;2023-09-07T03:26:00;23.70;43.00
28087;DHT22;15392;48.912;8.380;2023-09-07T03:28:26;23.70;43.10
28087;DHT22;15392;48.912;8.380;2023-09-07T03:30:53;23.60;43.10
28087;DHT22;15392;48.912;8.380;2023-09-07T03:33:19;23.60;43.20
28087;DHT22;15392;48.912;8.380;2023-09-07T03:35:45;23.60;43.30
28087;DHT22;15392;48.912;8.380;2023-09-07T03:38:10;23.70;43.40
28087;DHT22;15392;48.912;8.380;2023-09-07T03:40:36;23.60;43.40
28087;DHT22;15392;48.912;8.380;2023-09-07T03:43:02;23.60;43.40
28087;DHT22;15392;48.912;8.380;2023-09-07T03:45:28;23.60;43.40
28087;DHT22;15392;48.912;8.380;2023-09-07T03:47:54;23.60;44.20
28087;DHT22;15392;48.912;8.380;2023-09-07T03:50:20;23.60;43.50
28087;DHT22;15392;48.912;8.380;2023-09-07T03:52:46;23.50;43.50
28087;DHT22;15392;48.912;8.380;2023-09-07T03:55:11;23.60;43.50
28087;DHT22;15392;48.912;8.380;2023-09-07T03:57:37;23.60;43.50
28087;DHT22;15392;48.912;8.380;2023-09-07T04:00:03;23.50;43.50
28087;DHT22;15392;48.912;8.380;2023-09-07T04:02:34;23.50;43.50
28087;DHT22;15392;48.912;8.380;2023-09-07T04:05:00;23.50;43.50
28087;DHT22;15392;48.912;8.380;2023-09-07T04:07:30;23.50;43.50
28087;DHT22;15392;48.912;8.380;2023-09-07T04:09:57;23.50;43.50
28087;DHT22;15392;48.912;8.380;2023-09-07T04:12:22;23.40;44.20
28087;DHT22;15392;48.912;8.380;2023-09-07T04:14:48;23.40;43.50
28087;DHT22;15392;48.912;8.380;2023-09-07T04:17:14;23.40;43.60
28087;DHT22;15392;48.912;8.380;2023-09-07T04:19:39;23.40;43.60
28087;DHT22;15392;48.912;8.380;2023-09-07T04:22:05;23.40;43.60
28087;DHT22;15392;48.912;8.380;2023-09-07T04:24:30;23.40;43.50
28087;DHT22;15392;48.912;8.380;2023-09-07T04:27:00;23.30;43.50
28087;DHT22;15392;48.912;8.380;2023-09-07T04:29:27;23.30;43.60
28087;DHT22;15392;48.912;8.380;2023-09-07T04:31:53;23.30;43.50
28087;DHT22;15392;48.912;8.380;2023-09-07T04:34:20;23.30;43.60
28087;DHT22;15392;48.912;8.380;2023-09-07T04:36:46;23.20;43.60
28087;DHT22;15392;48.912;8.380;2023-09-07T04:39:12;23.20;43.70
28087;DHT22;15392;48.912;8.380;2023-09-07T04:41:39;23.20;43.70
28087;DHT22;15392;48.912;8.380;2023-09-07T04:44:06;23.10;43.80
28087;DHT22;15392;48.912;8.380;2023-09-07T04:46:31;23.10;43.80
28087;DHT22;15392;48.912;8.380;2023-09-07T04:48:57;23.10;43.90
28087;DHT22;15392;48.912;8.380;2023-09-07T04:51:23;23.10;44.00
28087;DHT22;15392;48.912;8.380;2023-09-07T04:53:51;23.00;43.90
28087;DHT22;15392;48.912;8.380;2023-09-07T04:56:16;23.00;44.00
28087;DHT22;15392;48.912;8.380;2023-09-07T04:58:42;22.90;44.00
28087;DHT22;15392;48.912;8.380;2023-09-07T05:01:10;22.90;44.10
28087;DHT22;15392;48.912;8.380;2023-09-07T05:03:37;22.90;44.20
28087;DHT22;15392;48.912;8.380;2023-09-07T05:06:04;22.80;44.20
28087;DHT22;15392;48.912;8.380;2023-09-07T05:08:30;22.80;44.30
28087;DHT22;15392;48.912;8.380;2023-09-07T05:11:00;22.80;44.30
28087;DHT22;15392;48.912;8.380;2023-09-07T05:13:28;22.80;44.40
28087;DHT22;15392;48.912;8.380;2023-09-07T05:15:54;22.70;44.40
28087;DHT22;15392;48.912;8.380;2023-09-07T05:18:21;22.70;45.10
28087;DHT22;15392;48.912;8.380;2023-09-07T05:20:48;22.70;44.40
28087;DHT22;15392;48.912;8.380;2023-09-07T05:23:15;22.70;44.50
28087;DHT22;15392;48.912;8.380;2023-09-07T05:25:47;22.70;44.60
28087;DHT22;15392;48.912;8.380;2023-09-07T05:28:15;22.70;44.60
28087;DHT22;15392;48.912;8.380;2023-09-07T05:30:41;22.70;44.60
28087;DHT22;15392;48.912;8.380;2023-09-07T05:33:09;22.70;44.70
28087;DHT22;15392;48.912;8.380;2023-09-07T05:35:35;22.70;44.70
28087;DHT22;15392;48.912;8.380;2023-09-07T05:38:02;22.70;44.60
28087;DHT22;15392;48.912;8.380;2023-09-07T05:40:29;22.70;44.50
28087;DHT22;15392;48.912;8.380;2023-09-07T05:42:55;22.70;44.40
28087;DHT22;15392;48.912;8.380;2023-09-07T05:45:21;22.80;44.50
28087;DHT22;15392;48.912;8.380;2023-09-07T05:47:46;22.80;44.50
28087;DHT22;15392;48.912;8.380;2023-09-07T05:50:12;22.80;44.50
28087;DHT22;15392;48.912;8.380;2023-09-07T05:52:38;22.80;44.50
28087;DHT22;15392;48.912;8.380;2023-09-07T05:55:04;22.80;44.50
28087;DHT22;15392;48.912;8.380;2023-09-07T05:57:30;22.80;44.50
28087;DHT22;15392;48.912;8.380;2023-09-07T05:59:55;22.90;44.50
28087;DHT22;15392;48.912;8.380;2023-09-07T06:02:21;22.80;44.60
28087;DHT22;15392;48.912;8.380;2023-09-07T06:04:47;22.90;44.70
28087;DHT22;15392;48.912;8.380;2023-09-07T06:07:13;22.90;44.80
28087;DHT22;15392;48.912;8.380;2023-09-07T06:09:38;23.00;44.80
28087;DHT22;15392;48.912;8.380;2023-09-07T06:12:04;23.00;44.80
28087;DHT22;15392;48.912;8.380;2023-09-07T06:14:30;23.00;44.80
28087;DHT22;15392;48.912;8.380;2023-09-07T06:16:56;23.00;44.80
28087;DHT22;15392;48.912;8.380;2023-09-07T06:19:21;23.00;44.80
28087;DHT22;15392;48.912;8.380;2023-09-07T06:21:47;23.10;44.90
28087;DHT22;15392;48.912;8.380;2023-09-07T06:24:13;23.10;44.90
28087;DHT22;15392;48.912;8.380;2023-09-07T06:26:39;23.10;45.00
28087;DHT22;15392;48.912;8.380;2023-09-07T06:29:05;23.20;45.00
28087;DHT22;15392;48.912;8.380;2023-09-07T06:31:31;23.20;45.00
28087;DHT22;15392;48.912;8.380;2023-09-07T06:33:57;23.20;44.90
28087;DHT22;15392;48.912;8.380;2023-09-07T06:36:22;23.20;45.00
28087;DHT22;15392;48.912;8.380;2023-09-07T06:38:48;23.30;44.90
28087;DHT22;15392;48.912;8.380;2023-09-07T06:41:14;23.40;45.00
28087;DHT22;15392;48.912;8.380;2023-09-07T06:43:40;23.40;45.00
28087;DHT22;15392;48.912;8.380;2023-09-07T06:46:07;23.40;45.10
28087;DHT22;15392;48.912;8.380;2023-09-07T06:48:34;23.40;45.00
28087;DHT22;15392;48.912;8.380;2023-09-07T06:51:04;23.50;45.00
28087;DHT22;15392;48.912;8.380;2023-09-07T06:53:30;23.60;45.30
28087;DHT22;15392;48.912;8.380;2023-09-07T06:56:00;23.60;45.10
28087;DHT22;15392;48.912;8.380;2023-09-07T06:58:27;23.60;45.10
28087;DHT22;15392;48.912;8.380;2023-09-07T07:00:57;23.70;45.10
28087;DHT22;15392;48.912;8.380;2023-09-07T07:03:27;23.80;46.00
28087;DHT22;15392;48.912;8.380;2023-09-07T07:05:53;23.80;45.60
28087;DHT22;15392;48.912;8.380;2023-09-07T07:08:19;23.90;45.00
28087;DHT22;15392;48.912;8.380;2023-09-07T07:10:45;24.00;45.20
28087;DHT22;15392;48.912;8.380;2023-09-07T07:13:11;24.00;45.10
28087;DHT22;15392;48.912;8.380;2023-09-07T07:15:37;24.10;45.20
28087;DHT22;15392;48.912;8.380;2023-09-07T07:18:03;24.20;45.30
28087;DHT22;15392;48.912;8.380;2023-09-07T07:20:42;24.40;45.40
28087;DHT22;15392;48.912;8.380;2023-09-07T07:23:09;24.60;45.90
28087;DHT22;15392;48.912;8.380;2023-09-07T07:25:36;24.70;45.50
28087;DHT22;15392;48.912;8.380;2023-09-07T07:28:06;24.90;45.30
28087;DHT22;15392;48.912;8.380;2023-09-07T07:30:36;25.10;45.10
28087;DHT22;15392;48.912;8.380;2023-09-07T07:33:04;25.20;44.80
28087;DHT22;15392;48.912;8.380;2023-09-07T07:35:31;25.30;44.50
28087;DHT22;15392;48.912;8.380;2023-09-07T07:37:57;25.40;44.30
28087;DHT22;15392;48.912;8.380;2023-09-07T07:40:23;25.50;44.10
28087;DHT22;15392;48.912;8.380;2023-09-07T07:42:50;25.50;44.00
28087;DHT22;15392;48.912;8.380;2023-09-07T07:45:17;25.60;44.10
28087;DHT22;15392;48.912;8.380;2023-09-07T07:47:45;25.60;44.00
28087;DHT22;15392;48.912;8.380;2023-09-07T07:50:11;25.70;44.10
28087;DHT22;15392;48.912;8.380;2023-09-07T07:52:37;25.70;44.10
28087;DHT22;15392;48.912;8.380;2023-09-07T07:55:03;25.80;44.10
28087;DHT22;15392;48.912;8.380;2023-09-07T07:57:29;25.80;44.10
28087;DHT22;15392;48.912;8.380;2023-09-07T07:59:56;25.90;44.10
28087;DHT22;15392;48.912;8.380;2023-09-07T08:02:22;26.10;44.30
28087;DHT22;15392;48.912;8.380;2023-09-07T08:04:47;26.30;44.30
28087;DHT22;15392;48.912;8.380;2023-09-07T08:07:13;26.60;44.40
28087;DHT22;15392;48.912;8.380;2023-09-07T08:09:39;26.80;44.40
28087;DHT22;15392;48.912;8.380;2023-09-07T08:12:05;27.10;44.30
28087;DHT22;15392;48.912;8.380;2023-09-07T08:14:31;27.30;44.10
28087;DHT22;15392;48.912;8.380;2023-09-07T08:16:57;27.50;43.90
28087;DHT22;15392;48.912;8.380;2023-09-07T08:19:24;27.80;43.80
28087;DHT22;15392;48.912;8.380;2023-09-07T08:21:50;28.00;43.70
28087;DHT22;15392;48.912;8.380;2023-09-07T08:24:16;28.20;43.70
28087;DHT22;15392;48.912;8.380;2023-09-07T08:26:43;28.50;43.70
28087;DHT22;15392;48.912;8.380;2023-09-07T08:29:09;28.80;43.70
28087;DHT22;15392;48.912;8.380;2023-09-07T08:31:36;29.10;43.70
28087;DHT22;15392;48.912;8.380;2023-09-07T08:34:06;29.50;43.60
28087;DHT22;15392;48.912;8.380;2023-09-07T08:36:34;30.00;43.80
28087;DHT22;15392;48.912;8.380;2023-09-07T08:39:07;30.50;43.70
28087;DHT22;15392;48.912;8.380;2023-09-07T08:41:41;31.00;43.30
28087;DHT22;15392;48.912;8.380;2023-09-07T08:44:18;31.50;43.40
28087;DHT22;15392;48.912;8.380;2023-09-07T08:46:45;32.20;42.90
28087;DHT22;15392;48.912;8.380;2023-09-07T08:49:11;32.70;42.80
28087;DHT22;15392;48.912;8.380;2023-09-07T08:51:38;33.20;42.50
28087;DHT22;15392;48.912;8.380;2023-09-07T08:54:07;33.60;41.90
28087;DHT22;15392;48.912;8.380;2023-09-07T08:56:33;34.10;41.00
28087;DHT22;15392;48.912;8.380;2023-09-07T08:58:59;34.40;41.20
28087;DHT22;15392;48.912;8.380;2023-09-07T09:01:25;34.70;40.90
28087;DHT22;15392;48.912;8.380;2023-09-07T09:03:51;35.10;40.90
28087;DHT22;15392;48.912;8.380;2023-09-07T09:06:19;35.40;40.80
28087;DHT22;15392;48.912;8.380;2023-09-07T09:08:57;35.90;40.70
28087;DHT22;15392;48.912;8.380;2023-09-07T09:11:24;36.30;39.90
28087;DHT22;15392;48.912;8.380;2023-09-07T09:13:52;36.70;40.30
28087;DHT22;15392;48.912;8.380;2023-09-07T09:16:18;37.00;40.00
28087;DHT22;15392;48.912;8.380;2023-09-07T09:19:03;37.30;39.90
28087;DHT22;15392;48.912;8.380;2023-09-07T09:21:28;37.50;38.30
28087;DHT22;15392;48.912;8.380;2023-09-07T09:23:56;37.50;38.70
28087;DHT22;15392;48.912;8.380;2023-09-07T09:26:22;37.40;38.10
28087;DHT22;15392;48.912;8.380;2023-09-07T09:28:49;37.30;38.00
28087;DHT22;15392;48.912;8.380;2023-09-07T09:31:17;37.10;37.90
28087;DHT22;15392;48.912;8.380;2023-09-07T09:33:48;36.90;38.00
28087;DHT22;15392;48.912;8.380;2023-09-07T09:36:17;36.70;37.40
28087;DHT22;15392;48.912;8.380;2023-09-07T09:38:50;36.50;38.10
28087;DHT22;15392;48.912;8.380;2023-09-07T09:41:19;36.20;37.70
28087;DHT22;15392;48.912;8.380;2023-09-07T09:43:46;35.90;38.50
28087;DHT22;15392;48.912;8.380;2023-09-07T09:46:17;35.70;38.70
28087;DHT22;15392;48.912;8.380;2023-09-07T09:48:44;35.40;39.40
28087;DHT22;15392;48.912;8.380;2023-09-07T09:51:10;35.20;39.10
28087;DHT22;15392;48.912;8.380;2023-09-07T09:53:39;34.90;39.40
28087;DHT22;15392;48.912;8.380;2023-09-07T09:56:05;34.60;39.40
28087;DHT22;15392;48.912;8.380;2023-09-07T09:58:31;34.40;39.50
28087;DHT22;15392;48.912;8.380;2023-09-07T10:00:59;34.20;39.60
28087;DHT22;15392;48.912;8.380;2023-09-07T10:03:32;34.00;39.60
28087;DHT22;15392;48.912;8.380;2023-09-07T10:06:12;33.80;39.10
28087;DHT22;15392;48.912;8.380;2023-09-07T10:11:30;33.40;39.20
28087;DHT22;15392;48.912;8.380;2023-09-07T10:13:57;33.20;39.50
28087;DHT22;15392;48.912;8.380;2023-09-07T10:16:29;33.00;40.20
28087;DHT22;15392;48.912;8.380;2023-09-07T10:19:21;32.90;40.30
28087;DHT22;15392;48.912;8.380;2023-09-07T10:21:48;32.70;39.60
28087;DHT22;15392;48.912;8.380;2023-09-07T10:24:28;32.50;40.40
28087;DHT22;15392;48.912;8.380;2023-09-07T10:29:28;32.20;40.50
28087;DHT22;15392;48.912;8.380;2023-09-07T10:31:54;32.10;40.70
28087;DHT22;15392;48.912;8.380;2023-09-07T10:34:20;32.00;40.80
28087;DHT22;15392;48.912;8.380;2023-09-07T10:36:47;31.90;41.00
28087;DHT22;15392;48.912;8.380;2023-09-07T10:39:16;31.80;41.00
28087;DHT22;15392;48.912;8.380;2023-09-07T10:41:43;31.70;41.10
28087;DHT22;15392;48.912;8.380;2023-09-07T10:44:10;31.60;41.10
28087;DHT22;15392;48.912;8.380;2023-09-07T10:46:38;31.60;41.30
28087;DHT22;15392;48.912;8.380;2023-09-07T10:49:07;31.50;41.30
28087;DHT22;15392;48.912;8.380;2023-09-07T10:51:41;31.40;41.30
28087;DHT22;15392;48.912;8.380;2023-09-07T10:54:26;31.40;41.10
28087;DHT22;15392;48.912;8.380;2023-09-07T10:56:51;31.30;40.90
28087;DHT22;15392;48.912;8.380;2023-09-07T10:59:18;31.30;41.60
28087;DHT22;15392;48.912;8.380;2023-09-07T11:01:44;31.20;41.60
28087;DHT22;15392;48.912;8.380;2023-09-07T11:04:11;31.20;41.60
28087;DHT22;15392;48.912;8.380;2023-09-07T11:06:38;31.10;41.60
28087;DHT22;15392;48.912;8.380;2023-09-07T11:09:05;31.10;41.60
28087;DHT22;15392;48.912;8.380;2023-09-07T11:11:34;31.10;41.60
28087;DHT22;15392;48.912;8.380;2023-09-07T11:14:02;31.00;41.60
28087;DHT22;15392;48.912;8.380;2023-09-07T11:16:30;31.00;41.60
28087;DHT22;15392;48.912;8.380;2023-09-07T11:18:56;31.00;41.70
28087;DHT22;15392;48.912;8.380;2023-09-07T11:21:23;31.00;41.70
28087;DHT22;15392;48.912;8.380;2023-09-07T11:23:48;30.90;41.70
28087;DHT22;15392;48.912;8.380;2023-09-07T11:26:16;30.80;41.80
28087;DHT22;15392;48.912;8.380;2023-09-07T11:28:47;30.80;41.70
28087;DHT22;15392;48.912;8.380;2023-09-07T11:31:13;30.80;41.70
28087;DHT22;15392;48.912;8.380;2023-09-07T11:33:41;30.80;41.90
28087;DHT22;15392;48.912;8.380;2023-09-07T11:36:06;30.70;41.80
28087;DHT22;15392;48.912;8.380;2023-09-07T11:38:36;30.70;41.90
28087;DHT22;15392;48.912;8.380;2023-09-07T11:41:03;30.70;41.90
28087;DHT22;15392;48.912;8.380;2023-09-07T11:43:29;30.80;42.00
28087;DHT22;15392;48.912;8.380;2023-09-07T11:45:55;30.70;42.00
28087;DHT22;15392;48.912;8.380;2023-09-07T11:48:20;30.70;42.10
28087;DHT22;15392;48.912;8.380;2023-09-07T11:50:46;30.70;42.10
28087;DHT22;15392;48.912;8.380;2023-09-07T11:53:12;30.70;42.10
28087;DHT22;15392;48.912;8.380;2023-09-07T11:55:37;30.80;42.10
28087;DHT22;15392;48.912;8.380;2023-09-07T11:58:05;30.70;42.10
28087;DHT22;15392;48.912;8.380;2023-09-07T12:00:31;30.70;42.10
28087;DHT22;15392;48.912;8.380;2023-09-07T12:02:57;30.80;42.10
28087;DHT22;15392;48.912;8.380;2023-09-07T12:05:23;30.80;42.10
28087;DHT22;15392;48.912;8.380;2023-09-07T12:07:49;30.80;42.00
28087;DHT22;15392;48.912;8.380;2023-09-07T12:10:15;30.80;42.00
28087;DHT22;15392;48.912;8.380;2023-09-07T12:12:41;30.80;42.10
28087;DHT22;15392;48.912;8.380;2023-09-07T12:15:08;30.80;42.10
28087;DHT22;15392;48.912;8.380;2023-09-07T12:17:34;30.80;42.10
28087;DHT22;15392;48.912;8.380;2023-09-07T12:20:00;30.80;42.10
28087;DHT22;15392;48.912;8.380;2023-09-07T12:22:27;30.90;42.10
28087;DHT22;15392;48.912;8.380;2023-09-07T12:24:53;30.90;42.10
28087;DHT22;15392;48.912;8.380;2023-09-07T12:27:18;30.90;42.10
28087;DHT22;15392;48.912;8.380;2023-09-07T12:29:44;31.00;42.20
28087;DHT22;15392;48.912;8.380;2023-09-07T12:32:10;31.00;42.20
28087;DHT22;15392;48.912;8.380;2023-09-07T12:34:36;31.00;42.10
28087;DHT22;15392;48.912;8.380;2023-09-07T12:37:02;31.00;42.10
28087;DHT22;15392;48.912;8.380;2023-09-07T12:39:32;31.00;42.10
28087;DHT22;15392;48.912;8.380;2023-09-07T12:41:58;31.10;42.10
28087;DHT22;15392;48.912;8.380;2023-09-07T12:44:24;31.10;42.10
28087;DHT22;15392;48.912;8.380;2023-09-07T12:46:49;31.20;42.10
28087;DHT22;15392;48.912;8.380;2023-09-07T12:49:15;31.20;42.10
28087;DHT22;15392;48.912;8.380;2023-09-07T12:51:41;31.30;42.00
28087;DHT22;15392;48.912;8.380;2023-09-07T12:54:07;31.30;42.00
28087;DHT22;15392;48.912;8.380;2023-09-07T12:56:33;31.30;41.90
28087;DHT22;15392;48.912;8.380;2023-09-07T12:58:59;31.40;42.00
28087;DHT22;15392;48.912;8.380;2023-09-07T13:01:26;31.50;42.00
28087;DHT22;15392;48.912;8.380;2023-09-07T13:03:52;31.50;41.90
28087;DHT22;15392;48.912;8.380;2023-09-07T13:06:17;31.60;41.90
28087;DHT22;15392;48.912;8.380;2023-09-07T13:08:44;31.60;41.70
28087;DHT22;15392;48.912;8.380;2023-09-07T13:11:10;31.70;41.90
28087;DHT22;15392;48.912;8.380;2023-09-07T13:13:37;31.80;41.90
28087;DHT22;15392;48.912;8.380;2023-09-07T13:16:03;31.80;41.80
28087;DHT22;15392;48.912;8.380;2023-09-07T13:18:29;31.90;41.70
28087;DHT22;15392;48.912;8.380;2023-09-07T13:20:56;32.00;41.80
28087;DHT22;15392;48.912;8.380;2023-09-07T13:23:34;32.00;41.60
28087;DHT22;15392;48.912;8.380;2023-09-07T13:25:59;32.10;41.80
28087;DHT22;15392;48.912;8.380;2023-09-07T13:28:26;32.20;41.50
28087;DHT22;15392;48.912;8.380;2023-09-07T13:30:52;32.20;41.40
28087;DHT22;15392;48.912;8.380;2023-09-07T13:33:17;32.30;41.30
28087;DHT22;15392;48.912;8.380;2023-09-07T13:35:43;32.30;41.10
28087;DHT22;15392;48.912;8.380;2023-09-07T13:38:10;32.40;41.30
28087;DHT22;15392;48.912;8.380;2023-09-07T13:40:35;32.40;41.30
28087;DHT22;15392;48.912;8.380;2023-09-07T13:43:01;32.40;41.20
28087;DHT22;15392;48.912;8.380;2023-09-07T13:45:27;32.40;41.20
28087;DHT22;15392;48.912;8.380;2023-09-07T13:47:54;32.50;41.30
28087;DHT22;15392;48.912;8.380;2023-09-07T13:50:20;32.50;41.30
28087;DHT22;15392;48.912;8.380;2023-09-07T13:52:47;32.50;41.40
28087;DHT22;15392;48.912;8.380;2023-09-07T13:55:13;32.60;41.20
28087;DHT22;15392;48.912;8.380;2023-09-07T13:57:39;32.60;41.00
28087;DHT22;15392;48.912;8.380;2023-09-07T14:00:05;32.60;41.10
28087;DHT22;15392;48.912;8.380;2023-09-07T14:02:31;32.60;41.00
28087;DHT22;15392;48.912;8.380;2023-09-07T14:05:00;32.60;40.90
28087;DHT22;15392;48.912;8.380;2023-09-07T14:07:25;32.60;40.90
28087;DHT22;15392;48.912;8.380;2023-09-07T14:09:54;32.60;40.90
28087;DHT22;15392;48.912;8.380;2023-09-07T14:12:20;32.70;40.70
28087;DHT22;15392;48.912;8.380;2023-09-07T14:14:47;32.70;40.80
28087;DHT22;15392;48.912;8.380;2023-09-07T14:17:13;32.70;40.70
28087;DHT22;15392;48.912;8.380;2023-09-07T14:19:39;32.70;40.70
28087;DHT22;15392;48.912;8.380;2023-09-07T14:22:05;32.70;40.70
28087;DHT22;15392;48.912;8.380;2023-09-07T14:24:30;32.70;40.50
28087;DHT22;15392;48.912;8.380;2023-09-07T14:26:56;32.70;40.40
28087;DHT22;15392;48.912;8.380;2023-09-07T14:29:22;32.70;40.60
28087;DHT22;15392;48.912;8.380;2023-09-07T14:31:47;32.70;40.40
28087;DHT22;15392;48.912;8.380;2023-09-07T14:34:13;32.70;40.40
28087;DHT22;15392;48.912;8.380;2023-09-07T14:36:39;32.80;40.60
28087;DHT22;15392;48.912;8.380;2023-09-07T14:39:08;32.80;40.50
28087;DHT22;15392;48.912;8.380;2023-09-07T14:41:37;32.80;40.10
28087;DHT22;15392;48.912;8.380;2023-09-07T14:44:03;32.80;40.10
28087;DHT22;15392;48.912;8.380;2023-09-07T14:46:29;32.80;40.20
28087;DHT22;15392;48.912;8.380;2023-09-07T14:48:55;32.80;40.90
28087;DHT22;15392;48.912;8.380;2023-09-07T14:51:22;32.80;40.00
28087;DHT22;15392;48.912;8.380;2023-09-07T14:53:48;32.80;40.30
28087;DHT22;15392;48.912;8.380;2023-09-07T14:56:14;32.90;40.50
28087;DHT22;15392;48.912;8.380;2023-09-07T14:58:39;32.90;40.40
28087;DHT22;15392;48.912;8.380;2023-09-07T15:01:05;32.90;40.30
28087;DHT22;15392;48.912;8.380;2023-09-07T15:03:31;32.90;40.40
28087;DHT22;15392;48.912;8.380;2023-09-07T15:05:57;32.90;40.40
28087;DHT22;15392;48.912;8.380;2023-09-07T15:08:23;33.00;40.30
28087;DHT22;15392;48.912;8.380;2023-09-07T15:10:49;33.00;40.10
28087;DHT22;15392;48.912;8.380;2023-09-07T15:13:15;33.00;40.20
28087;DHT22;15392;48.912;8.380;2023-09-07T15:15:41;33.00;40.20
28087;DHT22;15392;48.912;8.380;2023-09-07T15:18:07;33.00;40.20
28087;DHT22;15392;48.912;8.380;2023-09-07T15:20:33;33.00;40.30
28087;DHT22;15392;48.912;8.380;2023-09-07T15:22:59;33.00;40.10
28087;DHT22;15392;48.912;8.380;2023-09-07T15:25:25;33.00;40.10
28087;DHT22;15392;48.912;8.380;2023-09-07T15:27:52;33.00;40.60
28087;DHT22;15392;48.912;8.380;2023-09-07T15:30:19;33.10;40.00
28087;DHT22;15392;48.912;8.380;2023-09-07T15:32:45;33.00;40.00